Terminal Aerodrome Forecast
Issued by NWS

Home | Current Version | Previous Version | Text Only | Print | Product List | Glossary On
Versions: 1 2 3 4 5 6 7 8 9 10 11 12 13 14 15
000
FTAK31 PAFA 180540
TAFAGA
TAF
PAGA 180540Z 1806/1906 VRB03KT P6SM VCSH BKN035 OVC100
     FM181500 28006KT 6SM -SHRA BR BKN025 OVC050
     FM182000 29008KT P6SM VCSH BKN035 OVC060
     FM190200 28004KT P6SM BKN050 OVC090=

USA.gov is the U.S. government's official web portal to all federal, state and local government web resources and services.